Time;durP1;ratioP1;P1;durP2;ratioP2;P2;SDS_P1;SDS_P2;PMS_P1;PMS_P2;Temp;Humidity;BMP_temperature;BMP_pressure;BME280_temperature;BME280_humidity;BME280_pressure;Samples;Min_cycle;Max_cycle;Signal;HPM_P1;HPM_P2
2021/12/11 00:00:16;;;;;;;;;;;;;;;-0.03;100.00;90026.66;5092568;28;20344;-70
2021/12/11 00:02:43;;;;;;;;;;;;;;;0.03;100.00;90043.91;5092666;28;20365;-70
2021/12/11 00:05:09;;;;;;;;;;;;;;;-0.01;100.00;90051.47;5092583;28;20014;-70
2021/12/11 00:07:35;;;;;;;;;;;;;;;0.00;100.00;90057.53;5092583;28;19920;-69
2021/12/11 00:10:21;;;;;;;;;;;;;;;-0.08;100.00;90047.59;5092432;28;20351;-70
2021/12/11 00:12:48;;;;;;;;;;;;;;;-0.16;100.00;90048.13;5091681;28;19920;-70
2021/12/11 00:15:16;;;;;;;;;;;;;;;-0.14;100.00;90048.66;5092393;28;19919;-70
2021/12/11 00:17:42;;;;;;;;;;;;;;;-0.14;100.00;90043.44;5092682;28;20351;-70
2021/12/11 00:20:13;;;;;;;;;;;;;;;-0.07;100.00;90055.16;5092140;28;19920;-70
2021/12/11 00:22:40;;;;;;;;;;;;;;;-0.06;100.00;90056.72;5092373;28;20298;-70
2021/12/11 00:25:09;;;;;;;;;;;;;;;-0.09;100.00;90054.66;5092281;28;19959;-70
2021/12/11 00:27:35;;;;;;;;;;;;;;;-0.17;100.00;90057.78;5092300;28;19923;-70
2021/12/11 00:30:01;;;;;;;;;;;;;;;-0.23;100.00;90064.09;5092124;28;19916;-70
2021/12/11 00:32:29;;;;;;;;;;;;;;;-0.38;100.00;90064.13;5092102;28;20328;-70
2021/12/11 00:34:59;;;;;;;;;;;;;;;-0.42;100.00;90068.31;5092095;28;19923;-70
2021/12/11 00:37:25;;;;;;;;;;;;;;;-0.37;100.00;90060.47;5092057;28;19916;-70
2021/12/11 00:39:53;;;;;;;;;;;;;;;-0.40;100.00;90055.78;5092179;28;19989;-70
2021/12/11 00:42:22;;;;;;;;;;;;;;;-0.28;100.00;90068.56;5073931;28;19916;-70
2021/12/11 00:44:49;;;;;;;;;;;;;;;-0.22;100.00;90077.94;5092180;28;19923;-70
2021/12/11 00:47:20;;;;;;;;;;;;;;;-0.18;100.00;90071.91;5091948;28;19920;-70
2021/12/11 00:50:06;;;;;;;;;;;;;;;-0.22;100.00;90068.28;5091808;28;19998;-70
2021/12/11 00:52:34;;;;;;;;;;;;;;;-0.20;100.00;90049.72;5091850;28;19961;-70
2021/12/11 00:55:02;;;;;;;;;;;;;;;-0.12;100.00;90046.56;5091853;28;19922;-70
2021/12/11 00:57:28;;;;;;;;;;;;;;;-0.13;100.00;90029.31;5073743;28;19920;-70
2021/12/11 01:00:00;;;;;;;;;;;;;;;-0.09;100.00;90028.50;5091716;28;19920;-70
2021/12/11 01:02:26;;;;;;;;;;;;;;;-0.10;100.00;90034.00;5091691;28;19919;-70
2021/12/11 01:04:51;;;;;;;;;;;;;;;0.02;100.00;90042.34;5091718;28;19916;-70
2021/12/11 01:07:20;;;;;;;;;;;;;;;0.16;100.00;90043.34;5091685;28;19916;-70
2021/12/11 01:09:51;;;;;;;;;;;;;;;0.18;100.00;90036.00;5091608;28;20491;-70
2021/12/11 01:12:36;;;;;;;;;;;;;;;0.15;100.00;90039.13;5076070;28;19947;-70
2021/12/11 01:15:20;;;;;;;;;;;;;;;0.18;100.00;90019.53;5095996;28;19924;-70
2021/12/11 01:20:35;;;;;;;;;;;;;;;0.03;100.00;89999.47;5096035;28;20152;-70
2021/12/11 01:23:01;;;;;;;;;;;;;;;0.01;100.00;90008.63;5095628;28;20002;-70
2021/12/11 01:25:27;;;;;;;;;;;;;;;-0.07;100.00;90007.34;5095590;28;19920;-70
2021/12/11 01:27:56;;;;;;;;;;;;;;;-0.09;100.00;90009.44;5095803;28;19947;-70
2021/12/11 01:30:26;;;;;;;;;;;;;;;-0.14;100.00;89997.19;5095444;28;19917;-70
2021/12/11 01:32:51;;;;;;;;;;;;;;;-0.12;100.00;89991.69;5095384;28;19920;-70
2021/12/11 01:35:17;;;;;;;;;;;;;;;-0.07;100.00;89992.44;5095361;28;19916;-70
2021/12/11 01:37:44;;;;;;;;;;;;;;;-0.15;100.00;89979.94;5095420;28;19945;-70
2021/12/11 01:40:11;;;;;;;;;;;;;;;-0.09;100.00;89986.69;5095357;28;20290;-70
2021/12/11 01:42:41;;;;;;;;;;;;;;;-0.06;100.00;89987.97;5095275;28;19916;-69
2021/12/11 01:45:09;;;;;;;;;;;;;;;-0.07;100.00;89989.03;5095220;28;19916;-69
2021/12/11 01:47:36;;;;;;;;;;;;;;;-0.06;100.00;89980.91;5095179;28;19965;-70
2021/12/11 01:50:05;;;;;;;;;;;;;;;-0.10;100.00;89986.97;5095152;28;19968;-70
2021/12/11 01:52:39;;;;;;;;;;;;;;;0.04;100.00;89993.19;5095104;28;20404;-70
2021/12/11 01:55:07;;;;;;;;;;;;;;;0.02;100.00;89992.66;5094967;28;19923;-70
2021/12/11 01:57:33;;;;;;;;;;;;;;;0.03;100.00;89989.00;5095337;28;19949;-70
2021/12/11 02:00:05;;;;;;;;;;;;;;;-0.05;100.00;89989.53;5094983;28;20300;-70
2021/12/11 02:02:35;;;;;;;;;;;;;;;-0.06;100.00;89985.38;5095058;28;20057;-70
2021/12/11 02:05:01;;;;;;;;;;;;;;;-0.05;100.00;89982.50;5233974;22;19915;-77
2021/12/11 02:07:30;;;;;;;;;;;;;;;-0.08;100.00;89990.09;5073837;28;20308;-69
2021/12/11 02:09:59;;;;;;;;;;;;;;;-0.23;100.00;89982.31;5074565;28;19927;-69
2021/12/11 02:12:29;;;;;;;;;;;;;;;-0.32;100.00;89985.47;5074489;28;19916;-69
2021/12/11 02:14:55;;;;;;;;;;;;;;;-0.32;100.00;89987.28;5078117;28;20010;-70
2021/12/11 02:17:28;;;;;;;;;;;;;;;-0.35;100.00;89985.22;5094581;28;20003;-70
2021/12/11 02:19:54;;;;;;;;;;;;;;;-0.31;100.00;89981.81;5094527;28;20356;-70
2021/12/11 02:22:24;;;;;;;;;;;;;;;-0.24;100.00;89991.97;5075166;28;20354;-70
2021/12/11 02:24:51;;;;;;;;;;;;;;;-0.14;100.00;89985.94;5094506;28;19916;-69
2021/12/11 02:27:23;;;;;;;;;;;;;;;-0.13;100.00;89984.88;5094404;28;19923;-69
2021/12/11 02:29:55;;;;;;;;;;;;;;;-0.06;100.00;89978.31;5094509;28;19920;-69
2021/12/11 02:32:28;;;;;;;;;;;;;;;0.03;100.00;89975.94;5094293;28;19916;-69
2021/12/11 02:34:55;;;;;;;;;;;;;;;0.06;100.00;89985.84;5094428;28;19978;-69
2021/12/11 02:37:23;;;;;;;;;;;;;;;0.03;100.00;89980.38;5094426;28;19947;-69
2021/12/11 02:39:49;;;;;;;;;;;;;;;0.03;100.00;89980.38;5094343;28;20297;-69
2021/12/11 02:42:17;;;;;;;;;;;;;;;-0.06;100.00;89986.16;5094295;28;19965;-69
2021/12/11 02:44:45;;;;;;;;;;;;;;;-0.09;100.00;89985.91;5094171;28;19920;-69
2021/12/11 02:47:13;;;;;;;;;;;;;;;-0.05;100.00;89979.88;5087361;28;19923;-69
2021/12/11 02:49:45;;;;;;;;;;;;;;;-0.07;100.00;89968.91;5073893;28;19921;-69
2021/12/11 02:52:29;;;;;;;;;;;;;;;0.00;100.00;89966.03;5073709;28;19925;-69
2021/12/11 02:54:58;;;;;;;;;;;;;;;0.13;100.00;89957.56;5073649;28;19924;-70
2021/12/11 02:57:29;;;;;;;;;;;;;;;0.14;100.00;89950.50;5073766;28;19920;-69
2021/12/11 02:59:55;;;;;;;;;;;;;;;0.17;100.00;89945.53;5079775;28;19962;-69
2021/12/11 03:02:23;;;;;;;;;;;;;;;0.28;100.00;89952.25;5093793;28;19963;-69
2021/12/11 03:04:53;;;;;;;;;;;;;;;0.20;100.00;89955.44;5075638;28;20002;-69
2021/12/11 03:07:23;;;;;;;;;;;;;;;0.35;100.00;89966.88;5093637;28;20405;-69
2021/12/11 03:09:50;;;;;;;;;;;;;;;0.32;100.00;89968.22;5093772;28;20064;-69
2021/12/11 03:12:17;;;;;;;;;;;;;;;0.19;100.00;89948.66;5093609;28;19924;-69
2021/12/11 03:14:44;;;;;;;;;;;;;;;0.24;100.00;89943.38;5093541;28;19916;-69
2021/12/11 03:17:11;;;;;;;;;;;;;;;0.27;100.00;89944.66;5093346;28;19971;-69
2021/12/11 03:19:39;;;;;;;;;;;;;;;0.32;100.00;89944.66;5093436;28;20396;-69
2021/12/11 03:22:08;;;;;;;;;;;;;;;0.30;100.00;89938.91;5093739;28;19974;-69
2021/12/11 03:24:33;;;;;;;;;;;;;;;0.34;100.00;89939.16;5093672;28;19926;-69
2021/12/11 03:26:59;;;;;;;;;;;;;;;0.42;100.00;89938.56;5093254;28;19920;-69
2021/12/11 03:29:24;;;;;;;;;;;;;;;0.37;100.00;89946.47;5093317;28;19945;-69
2021/12/11 03:31:50;;;;;;;;;;;;;;;0.33;100.00;89945.44;5093170;28;19916;-69
2021/12/11 03:34:17;;;;;;;;;;;;;;;0.32;100.00;89947.28;5092837;28;19916;-69
2021/12/11 03:36:43;;;;;;;;;;;;;;;0.33;100.00;89937.59;5093013;28;19972;-69
2021/12/11 03:39:12;;;;;;;;;;;;;;;0.45;100.00;89945.88;5093155;28;20355;-69
2021/12/11 03:41:38;;;;;;;;;;;;;;;0.43;100.00;89934.91;5093042;28;19916;-69
2021/12/11 03:44:04;;;;;;;;;;;;;;;0.47;100.00;89936.69;5093022;28;19934;-69
2021/12/11 03:46:30;;;;;;;;;;;;;;;0.52;100.00;89941.91;5092890;28;19920;-69
2021/12/11 03:48:57;;;;;;;;;;;;;;;0.63;100.00;89931.34;5092987;28;19916;-69
2021/12/11 03:51:25;;;;;;;;;;;;;;;0.66;100.00;89925.59;5092816;28;20331;-70
2021/12/11 03:53:51;;;;;;;;;;;;;;;0.69;100.00;89936.28;5092861;28;19916;-70
2021/12/11 03:56:17;;;;;;;;;;;;;;;0.67;100.00;89930.56;5092740;28;19923;-70
2021/12/11 03:58:49;;;;;;;;;;;;;;;0.75;100.00;89931.78;5092847;28;19939;-70
2021/12/11 04:01:18;;;;;;;;;;;;;;;0.79;100.00;89920.50;5093027;28;20304;-69
2021/12/11 04:03:45;;;;;;;;;;;;;;;0.86;100.00;89926.19;5092754;28;19963;-70
2021/12/11 04:06:11;;;;;;;;;;;;;;;0.92;100.00;89924.31;5092386;28;20382;-70
2021/12/11 04:08:41;;;;;;;;;;;;;;;1.05;100.00;89917.66;5092645;28;19951;-69
2021/12/11 04:11:17;;;;;;;;;;;;;;;1.09;100.00;89908.19;5092494;28;19924;-70
2021/12/11 04:13:43;;;;;;;;;;;;;;;1.32;100.00;89904.03;5092467;28;20010;-70
2021/12/11 04:16:09;;;;;;;;;;;;;;;1.36;100.00;89902.44;5092334;28;19950;-70
2021/12/11 04:18:35;;;;;;;;;;;;;;;1.34;100.00;89888.81;5092379;28;19917;-69
2021/12/11 04:21:00;;;;;;;;;;;;;;;1.22;100.00;89878.72;5092364;28;19916;-69
2021/12/11 04:23:25;;;;;;;;;;;;;;;1.25;100.00;89886.03;5092340;28;19916;-70
2021/12/11 04:25:52;;;;;;;;;;;;;;;1.30;100.00;89867.66;5092207;28;19923;-70
2021/12/11 04:28:20;;;;;;;;;;;;;;;1.37;100.00;89860.22;5092339;28;20049;-70
2021/12/11 04:30:48;;;;;;;;;;;;;;;1.44;100.00;89852.81;5092443;28;19973;-70
2021/12/11 04:33:13;;;;;;;;;;;;;;;1.39;100.00;89855.47;5092204;28;19935;-70
2021/12/11 04:35:40;;;;;;;;;;;;;;;1.39;100.00;89868.59;5092055;28;19920;-69
2021/12/11 04:38:07;;;;;;;;;;;;;;;1.37;100.00;89854.22;5092061;28;20439;-69
2021/12/11 04:40:36;;;;;;;;;;;;;;;1.30;100.00;89851.94;5092103;28;20398;-69
2021/12/11 04:43:07;;;;;;;;;;;;;;;1.38;100.00;89848.69;5092279;28;19915;-69
2021/12/11 04:45:38;;;;;;;;;;;;;;;1.38;100.00;89840.81;5091109;28;19923;-70
2021/12/11 04:48:17;;;;;;;;;;;;;;;1.26;100.00;89826.56;5091996;28;19919;-69
2021/12/11 05:01:34;;;;;;;;;;;;;;;1.30;100.00;89810.03;5092061;28;19920;-69
2021/12/11 05:09:21;;;;;;;;;;;;;;;1.33;100.00;89803.44;5091980;28;20404;-69
2021/12/11 05:12:05;;;;;;;;;;;;;;;1.33;100.00;89806.84;5091935;28;20019;-70
2021/12/11 05:14:30;;;;;;;;;;;;;;;1.22;100.00;89786.28;5091714;28;19989;-70
2021/12/11 05:16:56;;;;;;;;;;;;;;;1.22;100.00;89791.50;5091550;28;20298;-69
2021/12/11 05:19:21;;;;;;;;;;;;;;;1.27;100.00;89789.63;5091622;28;20361;-70
2021/12/11 05:21:47;;;;;;;;;;;;;;;1.26;100.00;89802.97;5091650;28;19923;-70
2021/12/11 05:24:14;;;;;;;;;;;;;;;1.26;100.00;89810.84;5091622;28;19916;-70
2021/12/11 05:26:40;;;;;;;;;;;;;;;1.31;100.00;89806.34;5091497;28;20010;-69
2021/12/11 05:29:06;;;;;;;;;;;;;;;1.33;100.00;89798.19;5091589;28;20034;-70
2021/12/11 05:31:31;;;;;;;;;;;;;;;1.38;100.00;89805.97;5091468;28;19923;-70
2021/12/11 05:33:57;;;;;;;;;;;;;;;1.37;100.00;89799.97;5091589;28;19916;-70
2021/12/11 05:36:22;;;;;;;;;;;;;;;1.38;100.00;89785.03;5091432;28;20343;-70
2021/12/11 05:38:49;;;;;;;;;;;;;;;1.38;100.00;89790.25;5091521;28;19924;-70
2021/12/11 05:41:16;;;;;;;;;;;;;;;1.53;100.00;89792.69;5091380;28;20022;-70
2021/12/11 05:43:42;;;;;;;;;;;;;;;1.50;100.00;89808.97;5073248;28;20356;-70
2021/12/11 05:46:08;;;;;;;;;;;;;;;1.55;100.00;89816.00;5083444;28;19920;-69
2021/12/11 05:48:34;;;;;;;;;;;;;;;1.50;100.00;89822.88;5071103;28;19920;-69
2021/12/11 05:51:01;;;;;;;;;;;;;;;1.49;100.00;89831.00;5075524;28;19921;-69
2021/12/11 05:53:28;;;;;;;;;;;;;;;1.43;100.00;89834.75;5071166;28;20360;-70
2021/12/11 05:55:55;;;;;;;;;;;;;;;1.53;100.00;89825.97;5070571;28;20276;-70
2021/12/11 05:58:46;;;;;;;;;;;;;;;1.65;100.00;89836.84;5086947;28;19920;-69
2021/12/11 06:01:14;;;;;;;;;;;;;;;1.68;100.00;89847.53;5095284;28;20347;-69
2021/12/11 06:03:39;;;;;;;;;;;;;;;1.67;100.00;89832.88;5095045;28;19943;-70
2021/12/11 06:06:05;;;;;;;;;;;;;;;1.59;100.00;89833.53;5094806;28;20389;-69
2021/12/11 06:08:31;;;;;;;;;;;;;;;1.56;100.00;89820.94;5094420;28;19982;-70
2021/12/11 06:10:57;;;;;;;;;;;;;;;1.60;100.00;89829.06;5094568;28;19920;-70
2021/12/11 06:13:24;;;;;;;;;;;;;;;1.58;100.00;89831.16;5094721;28;19917;-70
2021/12/11 06:15:50;;;;;;;;;;;;;;;1.56;100.00;89841.91;5094472;28;20023;-70
2021/12/11 06:18:18;;;;;;;;;;;;;;;1.51;100.00;89844.59;5094695;28;19993;-70
2021/12/11 06:20:44;;;;;;;;;;;;;;;1.47;100.00;89818.19;5094788;28;19947;-70
2021/12/11 06:23:09;;;;;;;;;;;;;;;1.68;100.00;89846.75;5094466;28;20328;-70
2021/12/11 06:25:35;;;;;;;;;;;;;;;1.59;100.00;89853.72;5094425;28;19978;-71
2021/12/11 06:28:01;;;;;;;;;;;;;;;1.63;100.00;89838.97;5094518;28;19916;-70
2021/12/11 06:30:27;;;;;;;;;;;;;;;1.63;100.00;89850.22;5094522;28;19924;-70
2021/12/11 06:32:54;;;;;;;;;;;;;;;1.84;100.00;89855.22;5094434;28;19920;-73
2021/12/11 06:35:23;;;;;;;;;;;;;;;1.86;100.00;89851.25;5094323;28;19919;-69
2021/12/11 06:37:48;;;;;;;;;;;;;;;1.74;100.00;89832.53;5081408;28;19924;-71
2021/12/11 06:40:15;;;;;;;;;;;;;;;1.95;100.00;89840.91;5073853;28;19936;-71
2021/12/11 06:42:41;;;;;;;;;;;;;;;2.16;100.00;89857.13;5074034;28;19916;-70
2021/12/11 06:45:06;;;;;;;;;;;;;;;2.15;100.00;89840.63;5073677;28;20382;-69
2021/12/11 06:47:32;;;;;;;;;;;;;;;2.29;100.00;89853.81;5073613;28;19924;-69
2021/12/11 06:49:57;;;;;;;;;;;;;;;2.40;100.00;89855.22;5073493;28;19916;-70
2021/12/11 06:52:25;;;;;;;;;;;;;;;2.40;100.00;89834.22;5073018;28;19926;-69
2021/12/11 06:54:50;;;;;;;;;;;;;;;2.43;100.00;89838.13;5073306;28;20451;-69
2021/12/11 06:57:16;;;;;;;;;;;;;;;2.54;100.00;89845.56;5073419;28;19917;-69
2021/12/11 06:59:41;;;;;;;;;;;;;;;2.47;100.00;89849.59;5073363;28;19951;-69
2021/12/11 07:02:07;;;;;;;;;;;;;;;2.74;100.00;89860.22;5073205;28;19917;-71
2021/12/11 07:04:33;;;;;;;;;;;;;;;2.67;100.00;89841.41;5070515;28;19978;-69
2021/12/11 07:06:58;;;;;;;;;;;;;;;2.52;100.00;89833.75;5060650;28;20337;-68
2021/12/11 07:09:26;;;;;;;;;;;;;;;2.53;100.00;89825.63;5052255;28;19924;-68
2021/12/11 07:11:52;;;;;;;;;;;;;;;2.90;100.00;89844.97;5052407;28;19916;-67
2021/12/11 07:14:19;;;;;;;;;;;;;;;3.15;100.00;89847.16;5052902;28;19963;-67
2021/12/11 07:16:45;;;;;;;;;;;;;;;3.21;100.00;89827.59;5052886;28;19932;-68
2021/12/11 07:19:11;;;;;;;;;;;;;;;3.37;100.00;89843.09;5052400;28;19923;-68
2021/12/11 07:21:36;;;;;;;;;;;;;;;3.54;100.00;89853.81;5052784;28;20318;-69
2021/12/11 07:24:03;;;;;;;;;;;;;;;3.54;100.00;89836.19;5072595;28;19950;-68
2021/12/11 07:26:32;;;;;;;;;;;;;;;3.68;100.00;89817.78;5071717;28;20306;-68
2021/12/11 07:29:02;;;;;;;;;;;;;;;3.76;100.00;89819.69;5072643;28;20364;-68
2021/12/11 07:31:27;;;;;;;;;;;;;;;3.52;100.00;89824.41;5072163;28;20007;-66
2021/12/11 07:33:53;;;;;;;;;;;;;;;3.37;100.00;89824.69;5071848;28;19952;-67
2021/12/11 07:36:19;;;;;;;;;;;;;;;3.43;100.00;89828.78;5059693;28;19920;-66
2021/12/11 07:38:44;;;;;;;;;;;;;;;3.38;100.00;89836.75;5052281;28;19924;-67
2021/12/11 07:41:11;;;;;;;;;;;;;;;3.27;100.00;89815.91;5051998;28;19920;-67
2021/12/11 07:43:39;;;;;;;;;;;;;;;3.42;100.00;89825.38;5052761;28;19925;-67
2021/12/11 07:46:05;;;;;;;;;;;;;;;3.41;100.00;89831.69;5052454;28;19916;-66
2021/12/11 07:48:31;;;;;;;;;;;;;;;3.74;100.00;89836.84;5051969;28;20007;-67
2021/12/11 07:50:57;;;;;;;;;;;;;;;4.21;100.00;89823.22;5051758;28;20008;-67
2021/12/11 07:53:23;;;;;;;;;;;;;;;4.31;100.00;89822.22;5052317;28;19960;-67
2021/12/11 07:55:49;;;;;;;;;;;;;;;4.42;100.00;89823.56;5056787;28;19978;-66
2021/12/11 07:58:14;;;;;;;;;;;;;;;4.71;100.00;89823.13;5071662;28;20007;-66
2021/12/11 08:00:42;;;;;;;;;;;;;;;4.88;100.00;89813.78;5072080;28;20019;-66
2021/12/11 08:03:09;;;;;;;;;;;;;;;4.80;100.00;89810.03;5071481;28;19917;-66
2021/12/11 08:05:37;;;;;;;;;;;;;;;4.66;100.00;89830.38;5070823;28;19924;-66
2021/12/11 08:08:05;;;;;;;;;;;;;;;4.62;100.00;89813.63;5072079;28;19940;-65
2021/12/11 08:10:33;;;;;;;;;;;;;;;4.51;100.00;89815.69;5071481;28;19924;-66
2021/12/11 08:13:00;;;;;;;;;;;;;;;3.99;100.00;89786.34;5071736;28;19920;-65
2021/12/11 08:15:25;;;;;;;;;;;;;;;4.06;100.00;89812.25;5071811;28;20412;-66
2021/12/11 08:17:54;;;;;;;;;;;;;;;3.90;100.00;89806.53;5071062;28;20009;-66
2021/12/11 08:20:21;;;;;;;;;;;;;;;4.14;100.00;89798.38;5071378;28;19922;-66
2021/12/11 08:22:46;;;;;;;;;;;;;;;4.88;100.00;89788.19;5071636;28;20322;-66
2021/12/11 08:25:14;;;;;;;;;;;;;;;5.53;100.00;89805.25;5071048;28;19921;-67
2021/12/11 08:27:39;;;;;;;;;;;;;;;5.52;100.00;89817.66;5053657;28;19916;-66
2021/12/11 08:30:06;;;;;;;;;;;;;;;5.84;100.00;89821.81;5071335;28;20003;-66
2021/12/11 08:32:31;;;;;;;;;;;;;;;5.55;100.00;89811.00;5071061;28;19955;-66
2021/12/11 08:34:57;;;;;;;;;;;;;;;5.41;100.00;89834.84;5070926;28;20429;-66
2021/12/11 08:37:23;;;;;;;;;;;;;;;5.66;100.00;89799.84;5071256;28;19970;-68
2021/12/11 08:39:48;;;;;;;;;;;;;;;5.98;100.00;89819.06;5071006;28;19993;-66
2021/12/11 08:42:16;;;;;;;;;;;;;;;6.90;100.00;89799.34;5071142;28;20385;-66
2021/12/11 08:44:49;;;;;;;;;;;;;;;6.33;100.00;89788.22;5071359;28;19979;-66
2021/12/11 08:47:16;;;;;;;;;;;;;;;5.85;100.00;89786.41;5071014;28;19927;-67
2021/12/11 08:49:41;;;;;;;;;;;;;;;5.45;100.00;89803.34;5070956;28;19917;-66
2021/12/11 08:52:11;;;;;;;;;;;;;;;5.31;100.00;89809.50;5071380;28;20356;-66
2021/12/11 08:54:37;;;;;;;;;;;;;;;5.07;100.00;89804.59;5070634;28;19916;-65
2021/12/11 08:57:05;;;;;;;;;;;;;;;5.71;100.00;89786.53;5071249;28;19921;-66
2021/12/11 08:59:31;;;;;;;;;;;;;;;5.81;100.00;89787.31;5069691;28;19970;-66
2021/12/11 09:02:00;;;;;;;;;;;;;;;6.25;100.00;89787.09;5071106;28;19917;-66
2021/12/11 09:04:33;;;;;;;;;;;;;;;6.48;100.00;89777.19;5071426;28;20355;-66
2021/12/11 09:07:00;;;;;;;;;;;;;;;6.74;100.00;89798.28;5070882;28;19932;-65
2021/12/11 09:09:26;;;;;;;;;;;;;;;7.26;100.00;89777.06;5071004;28;19916;-66
2021/12/11 09:12:11;;;;;;;;;;;;;;;7.15;100.00;89778.47;5071277;28;19923;-66
2021/12/11 09:14:57;;;;;;;;;;;;;;;6.39;100.00;89786.97;5070523;28;19923;-66
2021/12/11 09:17:22;;;;;;;;;;;;;;;6.55;100.00;89776.69;5039216;28;19916;-65
2021/12/11 09:20:12;;;;;;;;;;;;;;;6.71;100.00;89777.00;5070959;28;20041;-65
2021/12/11 09:22:44;;;;;;;;;;;;;;;6.23;100.00;89738.34;5048053;28;19927;-66
2021/12/11 09:25:10;;;;;;;;;;;;;;;6.67;100.00;89763.63;5080321;28;20304;-67
2021/12/11 09:27:35;;;;;;;;;;;;;;;7.46;96.43;89788.81;5071026;28;19917;-65
2021/12/11 09:30:10;;;;;;;;;;;;;;;7.76;93.66;89779.81;5071035;28;20039;-65
2021/12/11 09:32:38;;;;;;;;;;;;;;;8.31;90.32;89781.50;5077487;28;19993;-65
2021/12/11 09:35:06;;;;;;;;;;;;;;;8.10;91.13;89770.88;5076238;28;19928;-66
2021/12/11 09:37:32;;;;;;;;;;;;;;;8.15;90.95;89771.78;5075069;28;19917;-65
2021/12/11 09:40:05;;;;;;;;;;;;;;;6.90;96.23;89751.00;5074784;28;19981;-65
2021/12/11 09:42:30;;;;;;;;;;;;;;;6.46;100.00;89763.47;5075072;28;19921;-66
2021/12/11 09:44:59;;;;;;;;;;;;;;;6.39;100.00;89770.34;5076664;28;19950;-67
2021/12/11 09:47:29;;;;;;;;;;;;;;;6.30;100.00;89768.47;5074354;28;20098;-66
2021/12/11 09:49:58;;;;;;;;;;;;;;;5.59;100.00;89778.44;5054834;28;19917;-66
2021/12/11 09:52:25;;;;;;;;;;;;;;;5.74;100.00;89761.41;5055025;28;19921;-65
2021/12/11 09:54:53;;;;;;;;;;;;;;;5.69;100.00;89766.81;5054080;28;19925;-66
2021/12/11 09:57:20;;;;;;;;;;;;;;;5.71;100.00;89764.66;5054198;28;19928;-65
2021/12/11 09:59:49;;;;;;;;;;;;;;;6.09;100.00;89751.69;5054629;28;19917;-65
2021/12/11 10:02:20;;;;;;;;;;;;;;;5.98;100.00;89734.59;5054242;28;20003;-65
2021/12/11 10:04:58;;;;;;;;;;;;;;;6.36;100.00;89753.25;5059704;28;19917;-66
2021/12/11 10:07:36;;;;;;;;;;;;;;;6.21;100.00;89751.06;5094483;28;20447;-66
2021/12/11 10:10:09;;;;;;;;;;;;;;;6.13;100.00;89767.69;5094346;28;20366;-66
2021/12/11 10:12:36;;;;;;;;;;;;;;;6.53;100.00;89766.44;5094751;28;19916;-66
2021/12/11 10:15:04;;;;;;;;;;;;;;;6.56;100.00;89757.13;5094706;28;19917;-66
2021/12/11 10:17:36;;;;;;;;;;;;;;;6.18;100.00;89773.59;5094150;28;19927;-66
2021/12/11 10:20:05;;;;;;;;;;;;;;;6.10;100.00;89747.97;5094316;28;20382;-66
2021/12/11 10:22:35;;;;;;;;;;;;;;;6.05;100.00;89761.31;5094583;28;19927;-66
2021/12/11 10:25:06;;;;;;;;;;;;;;;6.12;100.00;89764.25;5093836;28;19923;-67
2021/12/11 10:27:33;;;;;;;;;;;;;;;6.27;100.00;89729.47;5095102;28;19923;-67
2021/12/11 10:29:59;;;;;;;;;;;;;;;6.17;100.00;89750.16;5094505;28;19936;-66
2021/12/11 10:32:27;;;;;;;;;;;;;;;6.35;100.00;89754.34;5093643;28;20393;-67
2021/12/11 10:34:54;;;;;;;;;;;;;;;6.69;100.00;89742.97;5090012;28;19924;-67
2021/12/11 10:37:22;;;;;;;;;;;;;;;6.65;100.00;89743.91;5073957;28;20364;-66
2021/12/11 10:39:50;;;;;;;;;;;;;;;6.04;100.00;89727.31;5073479;28;19970;-65
2021/12/11 10:42:16;;;;;;;;;;;;;;;5.97;100.00;89744.38;5073937;28;20302;-65
2021/12/11 10:44:43;;;;;;;;;;;;;;;5.77;100.00;89729.13;5072629;28;19924;-66
2021/12/11 10:47:18;;;;;;;;;;;;;;;5.36;100.00;89727.63;5073152;28;19923;-65
2021/12/11 10:49:44;;;;;;;;;;;;;;;5.45;100.00;89719.75;5073731;28;19920;-66
2021/12/11 10:52:12;;;;;;;;;;;;;;;5.89;100.00;89705.53;5073785;28;20399;-66
2021/12/11 10:54:38;;;;;;;;;;;;;;;6.24;100.00;89703.69;5073570;28;19916;-66
2021/12/11 10:57:03;;;;;;;;;;;;;;;6.16;100.00;89712.41;5073577;28;19940;-66
2021/12/11 10:59:31;;;;;;;;;;;;;;;5.69;100.00;89709.56;5073334;28;20034;-66
2021/12/11 11:01:59;;;;;;;;;;;;;;;5.96;100.00;89703.22;5073131;28;19917;-65
2021/12/11 11:04:29;;;;;;;;;;;;;;;6.02;100.00;89708.38;5073401;28;19920;-66
2021/12/11 11:06:55;;;;;;;;;;;;;;;6.11;100.00;89717.06;5073290;28;19921;-66
2021/12/11 11:09:22;;;;;;;;;;;;;;;6.06;100.00;89701.38;5055103;28;19924;-65
2021/12/11 11:11:49;;;;;;;;;;;;;;;6.17;100.00;89698.13;5073306;28;19917;-65
2021/12/11 11:14:18;;;;;;;;;;;;;;;6.31;100.00;89692.66;5073123;28;19916;-66
2021/12/11 11:16:47;;;;;;;;;;;;;;;6.32;100.00;89690.81;5072894;28;19917;-66
2021/12/11 11:19:12;;;;;;;;;;;;;;;5.78;100.00;89685.03;5073207;28;20404;-65
2021/12/11 11:21:40;;;;;;;;;;;;;;;5.45;100.00;89684.69;5073221;28;19916;-65
2021/12/11 11:24:08;;;;;;;;;;;;;;;5.33;100.00;89664.19;5072473;28;19966;-66
2021/12/11 11:26:35;;;;;;;;;;;;;;;5.23;100.00;89664.47;5072239;28;19997;-65
2021/12/11 11:29:02;;;;;;;;;;;;;;;5.32;100.00;89663.41;5039813;28;19932;-66
2021/12/11 11:31:34;;;;;;;;;;;;;;;5.63;100.00;89655.38;5052405;28;19956;-65
2021/12/11 11:34:07;;;;;;;;;;;;;;;5.79;100.00;89645.13;5035671;28;19925;-65
2021/12/11 11:36:35;;;;;;;;;;;;;;;6.35;100.00;89656.63;5034998;28;20036;-65
2021/12/11 11:39:02;;;;;;;;;;;;;;;6.33;100.00;89642.19;5052267;28;19928;-65
2021/12/11 11:41:30;;;;;;;;;;;;;;;6.47;100.00;89640.09;5052775;28;19974;-65
2021/12/11 11:43:56;;;;;;;;;;;;;;;6.41;100.00;89630.81;5052900;28;19999;-65
2021/12/11 11:46:24;;;;;;;;;;;;;;;6.46;100.00;89630.63;5052281;28;20378;-65
2021/12/11 11:48:51;;;;;;;;;;;;;;;6.11;100.00;89630.72;5052448;28;19920;-65
2021/12/11 11:51:28;;;;;;;;;;;;;;;6.46;100.00;89636.69;5071878;28;20019;-65
2021/12/11 11:53:54;;;;;;;;;;;;;;;6.18;100.00;89638.94;5072013;28;20027;-65
2021/12/11 11:56:21;;;;;;;;;;;;;;;6.18;100.00;89646.09;5072085;28;20433;-64
2021/12/11 11:58:47;;;;;;;;;;;;;;;6.02;100.00;89659.00;5071811;28;19924;-66
2021/12/11 12:01:15;;;;;;;;;;;;;;;6.04;100.00;89651.53;5071772;28;20377;-64
2021/12/11 12:03:41;;;;;;;;;;;;;;;6.15;100.00;89650.09;5071969;28;19921;-64
2021/12/11 12:06:10;;;;;;;;;;;;;;;6.20;100.00;89651.81;5050598;28;19928;-64
2021/12/11 12:08:37;;;;;;;;;;;;;;;6.39;100.00;89659.41;5051594;28;20311;-65
2021/12/11 12:11:04;;;;;;;;;;;;;;;6.52;100.00;89658.44;5051957;28;20386;-65
2021/12/11 12:13:29;;;;;;;;;;;;;;;6.42;100.00;89669.34;5051838;28;19924;-65
2021/12/11 12:15:58;;;;;;;;;;;;;;;6.33;100.00;89656.16;5051519;28;19917;-65
2021/12/11 12:18:26;;;;;;;;;;;;;;;6.53;100.00;89652.84;5052064;28;19920;-65
2021/12/11 12:20:52;;;;;;;;;;;;;;;6.16;100.00;89651.69;5052035;28;20019;-65
2021/12/11 12:23:23;;;;;;;;;;;;;;;6.05;100.00;89661.00;5051448;28;20023;-65
2021/12/11 12:25:49;;;;;;;;;;;;;;;5.85;100.00;89667.66;5051422;28;20420;-65
2021/12/11 12:28:15;;;;;;;;;;;;;;;5.98;100.00;89656.19;5051821;28;19921;-65
2021/12/11 12:30:43;;;;;;;;;;;;;;;5.92;100.00;89661.94;5051696;28;19974;-65
2021/12/11 12:33:09;;;;;;;;;;;;;;;5.74;100.00;89661.13;5050567;28;19980;-67
2021/12/11 12:35:35;;;;;;;;;;;;;;;5.68;100.00;89660.53;5051525;28;19923;-66
2021/12/11 12:38:01;;;;;;;;;;;;;;;5.83;100.00;89653.19;5049580;28;20357;-67
2021/12/11 12:40:48;;;;;;;;;;;;;;;5.96;100.00;89654.94;5051634;28;19917;-66
2021/12/11 12:43:31;;;;;;;;;;;;;;;5.95;100.00;89656.03;5051466;28;19917;-65
2021/12/11 12:45:56;;;;;;;;;;;;;;;5.85;100.00;89643.13;5045101;28;19960;-67
2021/12/11 12:48:22;;;;;;;;;;;;;;;5.67;100.00;89658.16;5032320;28;19964;-66
2021/12/11 12:50:47;;;;;;;;;;;;;;;5.80;100.00;89659.09;5033280;28;20382;-66
2021/12/11 12:53:13;;;;;;;;;;;;;;;5.99;100.00;89652.44;5050782;28;19925;-65
2021/12/11 12:55:45;;;;;;;;;;;;;;;6.12;100.00;89653.38;5050556;28;20407;-66
2021/12/11 12:58:13;;;;;;;;;;;;;;;6.00;100.00;89666.44;5051496;28;19920;-66
2021/12/11 13:00:48;;;;;;;;;;;;;;;6.03;100.00;89652.63;5051061;28;20318;-65
2021/12/11 13:03:18;;;;;;;;;;;;;;;6.06;100.00;89638.78;5051364;28;19927;-65
2021/12/11 13:05:50;;;;;;;;;;;;;;;6.08;100.00;89641.91;5056692;28;19929;-65
2021/12/11 13:08:18;;;;;;;;;;;;;;;6.08;100.00;89657.72;5070950;28;19969;-65